KAXS

Altus / Quartz Mountain Regional Airport

Altus, Oklahoma, USA
METAR KAXS 231419Z AUTO 08008KT 1SM BR OVC002 02/01 A3022 RMK AO2 LTG DSNT S
Observed Flight Rules
Feb-23 @ 14:19 UTC (14 minutes ago) Instrument Flight Rules
Wind Visibility Clouds Conditions
80° at 8 knots 1 miles
  • Overcast at 200' AGL
  • Mist
Temperatures Readings
Current 2°C / 36°F
Dewpoint 1°C / 34°F
Humidity 93%
Altimeter 30.22" Hg
Pressure 1023 hPa
Elevation 437
METAR KAXS 231419Z AUTO 08008KT 1SM BR OVC002 02/01 A3022 RMK AO2 LTG DSNT S
Observed Flight Rules
Feb-23 @ 14:19 UTC
(14 minutes ago)
LIFR
Wind Visibility
80° at 8 knots 1 miles
Clouds
  • Overcast at 200' AGL
Conditions
  • Mist
Temperature Dewpoint
2°C / 36°F 1°C / 34°F
Humidity Altimeter Pressure
93% 30.22" Hg 1023 hPa